createdAt,value
2022-11-17T00:00:22.942Z,6.7
2022-11-17T00:01:30.085Z,6.7
2022-11-17T00:02:37.371Z,6.7
2022-11-17T00:03:44.303Z,6.7
2022-11-17T00:04:51.394Z,6.7
2022-11-17T00:05:58.002Z,6.7
2022-11-17T00:07:05.103Z,6.7
2022-11-17T00:08:12.270Z,6.7
2022-11-17T00:10:26.454Z,6.7
2022-11-17T00:11:32.941Z,6.7
2022-11-17T00:12:40.101Z,6.7
2022-11-17T00:13:47.227Z,6.7
2022-11-17T00:14:54.933Z,6.7
2022-11-17T00:16:00.843Z,6.7
2022-11-17T00:17:07.971Z,6.6
2022-11-17T00:18:15.094Z,6.7
2022-11-17T00:19:22.262Z,6.7
2022-11-17T00:20:29.295Z,6.6
2022-11-17T00:21:35.885Z,6.7
2022-11-17T00:22:42.975Z,6.6
2022-11-17T00:23:50.837Z,6.6
2022-11-17T00:24:57.261Z,6.6
2022-11-17T00:26:04.321Z,6.7
2022-11-17T00:27:10.914Z,6.7
2022-11-17T00:28:17.989Z,6.7
2022-11-17T00:29:25.321Z,6.7
2022-11-17T00:30:32.242Z,6.7
2022-11-17T00:31:39.332Z,6.7
2022-11-17T00:32:45.892Z,6.6
2022-11-17T00:33:52.973Z,6.7
2022-11-17T00:35:00.118Z,6.7
2022-11-17T00:36:07.208Z,6.7
2022-11-17T00:37:14.343Z,6.7
2022-11-17T00:38:20.874Z,6.7
2022-11-17T00:39:28.064Z,6.7
2022-11-17T00:40:35.162Z,6.7
2022-11-17T00:41:42.240Z,6.6
2022-11-17T00:42:49.331Z,6.6
2022-11-17T00:43:55.943Z,6.6
2022-11-17T00:45:02.978Z,6.6
2022-11-17T00:46:10.183Z,6.6
2022-11-17T00:47:17.294Z,6.6
2022-11-17T00:48:24.362Z,6.6
2022-11-17T00:49:30.900Z,6.6
2022-11-17T00:50:38.022Z,6.6
2022-11-17T00:51:45.237Z,6.5
2022-11-17T00:52:52.234Z,6.5
2022-11-17T00:53:59.344Z,6.6
2022-11-17T00:55:06.082Z,6.5
2022-11-17T00:56:13.040Z,6.5
2022-11-17T00:57:20.184Z,6.5
2022-11-17T00:58:27.286Z,6.5
2022-11-17T01:00:40.933Z,6.5
2022-11-17T01:01:48.188Z,6.5
2022-11-17T01:02:55.694Z,6.5
2022-11-17T01:04:02.213Z,6.5
2022-11-17T01:05:09.385Z,6.5
2022-11-17T01:06:16.054Z,6.5
2022-11-17T01:07:23.119Z,6.5
2022-11-17T01:08:30.134Z,6.5
2022-11-17T01:09:37.256Z,6.5
2022-11-17T01:10:44.402Z,6.5
2022-11-17T01:11:50.913Z,6.5
2022-11-17T01:12:58.077Z,6.5
2022-11-17T01:14:05.173Z,6.5
2022-11-17T01:15:12.227Z,6.5
2022-11-17T01:16:19.532Z,6.5
2022-11-17T01:17:25.962Z,6.5
2022-11-17T01:18:33.608Z,6.5
2022-11-17T01:19:40.133Z,6.4
2022-11-17T01:20:47.330Z,6.5
2022-11-17T01:21:53.816Z,6.4
2022-11-17T01:23:00.952Z,6.4
2022-11-17T01:24:08.074Z,6.5
2022-11-17T01:25:15.241Z,6.4
2022-11-17T01:26:22.305Z,6.5
2022-11-17T01:27:28.896Z,6.4
2022-11-17T01:28:35.961Z,6.4
2022-11-17T01:29:43.114Z,6.4
2022-11-17T01:30:50.204Z,6.4
2022-11-17T01:31:57.303Z,6.5
2022-11-17T01:33:03.903Z,6.4
2022-11-17T01:34:10.948Z,6.5
2022-11-17T01:35:18.124Z,6.4
2022-11-17T01:36:25.283Z,6.4
2022-11-17T01:38:38.892Z,6.4
2022-11-17T01:39:45.998Z,6.4
2022-11-17T01:40:53.169Z,6.4
2022-11-17T01:42:00.153Z,6.4
2022-11-17T01:43:07.362Z,6.4
2022-11-17T01:44:14.504Z,6.4
2022-11-17T01:45:21.001Z,6.4
2022-11-17T01:46:28.107Z,6.4
2022-11-17T01:47:35.240Z,6.4
2022-11-17T01:48:42.277Z,6.4
2022-11-17T01:49:48.921Z,6.4
2022-11-17T01:50:56.041Z,6.4
2022-11-17T01:52:03.090Z,6.4
2022-11-17T01:53:10.260Z,6.4
2022-11-17T01:54:17.311Z,6.4
2022-11-17T01:55:23.914Z,6.4
2022-11-17T01:56:31.063Z,6.4
2022-11-17T01:57:38.152Z,6.4
2022-11-17T01:58:45.233Z,6.4
2022-11-17T02:00:58.913Z,6.4
2022-11-17T02:02:06.116Z,6.4
2022-11-17T02:04:20.355Z,6.4
2022-11-17T02:05:27.359Z,6.3
2022-11-17T02:06:33.963Z,6.4
2022-11-17T02:07:41.063Z,6.4
2022-11-17T02:08:48.126Z,6.4
2022-11-17T02:09:55.254Z,6.4
2022-11-17T02:11:02.310Z,6.4
2022-11-17T02:12:08.921Z,6.4
2022-11-17T02:13:16.038Z,6.4
2022-11-17T02:14:23.137Z,6.4
2022-11-17T02:15:30.334Z,6.3
2022-11-17T02:16:37.444Z,6.3
2022-11-17T02:17:43.983Z,6.3
2022-11-17T02:18:51.063Z,6.3
2022-11-17T02:19:58.170Z,6.3
2022-11-17T02:21:05.283Z,6.3
2022-11-17T02:22:12.849Z,6.3
2022-11-17T02:23:18.932Z,6.3
2022-11-17T02:24:26.044Z,6.3
2022-11-17T02:26:40.343Z,6.4
2022-11-17T02:28:53.971Z,6.4
2022-11-17T02:30:01.039Z,6.4
2022-11-17T02:31:08.251Z,6.5
2022-11-17T02:32:15.319Z,6.5
2022-11-17T02:33:21.868Z,6.5
2022-11-17T02:34:28.981Z,6.5
2022-11-17T02:35:36.084Z,6.5
2022-11-17T02:36:43.629Z,6.4
2022-11-17T02:37:50.313Z,6.4
2022-11-17T02:38:56.883Z,6.5
2022-11-17T02:40:03.949Z,6.5
2022-11-17T02:41:11.130Z,6.5
2022-11-17T02:42:18.219Z,6.5
2022-11-17T02:43:25.298Z,6.5
2022-11-17T02:44:31.882Z,6.4
2022-11-17T02:45:38.994Z,6.5
2022-11-17T02:46:46.154Z,6.5
2022-11-17T02:47:53.178Z,6.5
2022-11-17T02:49:00.310Z,6.5
2022-11-17T02:50:06.879Z,6.5
2022-11-17T02:51:13.999Z,6.5
2022-11-17T02:52:21.068Z,6.5
2022-11-17T02:53:28.231Z,6.5
2022-11-17T02:54:35.308Z,6.5
2022-11-17T02:56:52.283Z,6.5
2022-11-17T02:57:56.133Z,6.5
2022-11-17T02:59:03.178Z,6.5
2022-11-17T03:00:10.268Z,6.5
2022-11-17T03:01:17.029Z,6.5
2022-11-17T03:02:23.963Z,6.5
2022-11-17T03:03:31.238Z,6.5
2022-11-17T03:04:38.188Z,6.5
2022-11-17T03:07:59.019Z,6.5
2022-11-17T03:09:06.139Z,6.4
2022-11-17T03:10:13.173Z,6.4
2022-11-17T03:11:20.392Z,6.4
2022-11-17T03:12:26.911Z,6.4
2022-11-17T03:13:34.304Z,6.3
2022-11-17T03:14:41.099Z,6.3
2022-11-17T03:15:48.293Z,6.3
2022-11-17T03:16:55.327Z,6.3
2022-11-17T03:18:01.929Z,6.3
2022-11-17T03:19:09.053Z,6.2
2022-11-17T03:20:16.130Z,6.2
2022-11-17T03:21:23.264Z,6.2
2022-11-17T03:22:30.331Z,6.1
2022-11-17T03:23:37.253Z,6.1
2022-11-17T03:24:44.089Z,6.1
2022-11-17T03:25:51.670Z,6.1
2022-11-17T03:26:58.263Z,6.1
2022-11-17T03:28:05.369Z,6.1
2022-11-17T03:29:11.959Z,6.1
2022-11-17T03:30:19.558Z,6.1
2022-11-17T03:31:26.209Z,6
2022-11-17T03:32:33.201Z,6
2022-11-17T03:33:40.345Z,6
2022-11-17T03:34:46.966Z,6
2022-11-17T03:35:54.069Z,6
2022-11-17T03:37:01.182Z,6
2022-11-17T03:38:08.244Z,6
2022-11-17T03:39:15.384Z,5.9
2022-11-17T03:40:21.949Z,5.9
2022-11-17T03:41:29.410Z,5.8
2022-11-17T03:42:36.181Z,5.8
2022-11-17T03:43:43.258Z,5.8
2022-11-17T03:44:50.357Z,5.8
2022-11-17T03:45:56.970Z,5.8
2022-11-17T03:47:04.033Z,5.8
2022-11-17T03:49:18.273Z,5.8
2022-11-17T03:50:25.386Z,5.7
2022-11-17T03:51:32.058Z,5.7
2022-11-17T03:52:39.133Z,5.7
2022-11-17T03:53:46.290Z,5.6
2022-11-17T03:54:53.244Z,5.6
2022-11-17T03:55:59.909Z,5.6
2022-11-17T03:57:06.953Z,5.6
2022-11-17T03:58:14.664Z,5.6
2022-11-17T03:59:21.181Z,5.6
2022-11-17T04:00:28.270Z,5.5
2022-11-17T04:01:35.566Z,5.5
2022-11-17T04:02:41.997Z,5.5
2022-11-17T04:03:49.122Z,5.5
2022-11-17T04:04:56.198Z,5.5
2022-11-17T04:06:03.250Z,5.4
2022-11-17T04:07:09.945Z,5.4
2022-11-17T04:08:17.027Z,5.4
2022-11-17T04:09:24.638Z,5.4
2022-11-17T04:11:38.372Z,5.3
2022-11-17T04:12:44.918Z,5.3
2022-11-17T04:13:51.971Z,5.3
2022-11-17T04:14:59.109Z,5.2
2022-11-17T04:16:06.180Z,5.3
2022-11-17T04:17:13.279Z,5.3
2022-11-17T04:18:19.907Z,5.3
2022-11-17T04:19:26.989Z,5.2
2022-11-17T04:20:34.118Z,5.3
2022-11-17T04:21:41.225Z,5.2
2022-11-17T04:22:49.430Z,5.2
2022-11-17T04:23:54.877Z,5.2
2022-11-17T04:25:01.991Z,5.2
2022-11-17T04:26:10.067Z,5.2
2022-11-17T04:27:16.291Z,5.2
2022-11-17T04:28:23.314Z,5.3
2022-11-17T04:30:37.052Z,5.3
2022-11-17T04:31:44.169Z,5.4
2022-11-17T04:32:51.179Z,5.4
2022-11-17T04:35:04.950Z,5.4
2022-11-17T04:36:12.040Z,5.4
2022-11-17T04:37:19.161Z,5.4
2022-11-17T04:38:26.215Z,5.4
2022-11-17T04:39:33.297Z,5.4
2022-11-17T04:40:39.929Z,5.4
2022-11-17T04:41:47.020Z,5.4
2022-11-17T04:42:54.161Z,5.4
2022-11-17T04:44:01.196Z,5.4
2022-11-17T04:45:08.377Z,5.4
2022-11-17T04:46:15.000Z,5.5
2022-11-17T04:47:22.022Z,5.5
2022-11-17T04:48:29.120Z,5.5
2022-11-17T04:49:36.266Z,5.5
2022-11-17T04:50:43.528Z,5.5
2022-11-17T04:51:49.972Z,5.5
2022-11-17T04:52:57.032Z,5.4
2022-11-17T04:54:04.143Z,5.4
2022-11-17T04:55:11.281Z,5.4
2022-11-17T04:56:18.393Z,5.4
2022-11-17T04:57:24.990Z,5.4
2022-11-17T04:58:32.047Z,5.4
2022-11-17T04:59:39.157Z,5.4
2022-11-17T05:00:46.287Z,5.4
2022-11-17T05:01:53.488Z,5.4
2022-11-17T05:02:59.959Z,5.4
2022-11-17T05:04:07.100Z,5.4
2022-11-17T05:05:14.199Z,5.4
2022-11-17T05:06:21.318Z,5.4
2022-11-17T05:07:28.438Z,5.3
2022-11-17T05:08:34.958Z,5.4
2022-11-17T05:09:42.023Z,5.3
2022-11-17T05:11:56.291Z,5.3
2022-11-17T05:13:03.333Z,5.3
2022-11-17T05:15:17.143Z,5.3
2022-11-17T05:16:24.221Z,5.3
2022-11-17T05:17:31.326Z,5.3
2022-11-17T05:18:38.408Z,5.3
2022-11-17T05:19:44.981Z,5.3
2022-11-17T05:20:52.089Z,5.3
2022-11-17T05:21:59.272Z,5.3
2022-11-17T05:23:06.938Z,5.3
2022-11-17T05:24:13.420Z,5.3
2022-11-17T05:25:19.967Z,5.3
2022-11-17T05:26:27.171Z,5.3
2022-11-17T05:27:34.219Z,5.3
2022-11-17T05:28:41.398Z,5.4
2022-11-17T05:29:48.455Z,5.4
2022-11-17T05:30:55.020Z,5.4
2022-11-17T05:32:02.058Z,5.4
2022-11-17T05:33:09.735Z,5.4
2022-11-17T05:34:16.297Z,5.4
2022-11-17T05:35:22.878Z,5.4
2022-11-17T05:36:30.054Z,5.4
2022-11-17T05:37:37.104Z,5.4
2022-11-17T05:38:44.393Z,5.4
2022-11-17T05:39:51.317Z,5.4
2022-11-17T05:40:57.932Z,5.4
2022-11-17T05:42:05.020Z,5.4
2022-11-17T05:43:12.123Z,5.4
2022-11-17T05:44:19.251Z,5.4
2022-11-17T05:45:26.331Z,5.3
2022-11-17T05:46:32.933Z,5.3
2022-11-17T05:47:40.088Z,5.3
2022-11-17T05:48:47.142Z,5.3
2022-11-17T05:49:54.264Z,5.3
2022-11-17T05:51:01.338Z,5.3
2022-11-17T05:53:15.001Z,5.2
2022-11-17T05:54:22.132Z,5.2
2022-11-17T05:55:29.272Z,5.2
2022-11-17T05:56:36.407Z,5.2
2022-11-17T05:57:42.933Z,5.2
2022-11-17T05:58:50.050Z,5.1
2022-11-17T05:59:57.146Z,5.1
2022-11-17T06:01:04.268Z,5.1
2022-11-17T06:03:17.977Z,5.1
2022-11-17T06:04:25.129Z,5.1
2022-11-17T06:05:32.123Z,5
2022-11-17T06:06:39.304Z,5.1
2022-11-17T06:07:46.359Z,5
2022-11-17T06:08:52.925Z,5.1
2022-11-17T06:10:00.108Z,5.1
2022-11-17T06:11:07.202Z,5.1
2022-11-17T06:12:14.283Z,5
2022-11-17T06:13:21.359Z,5
2022-11-17T06:14:27.965Z,5
2022-11-17T06:15:35.173Z,5
2022-11-17T06:16:42.202Z,5
2022-11-17T06:18:56.442Z,5.1
2022-11-17T06:20:02.963Z,5
2022-11-17T06:21:10.109Z,5
2022-11-17T06:22:17.221Z,5
2022-11-17T06:23:24.268Z,5
2022-11-17T06:24:31.329Z,5
2022-11-17T06:25:37.991Z,5
2022-11-17T06:26:45.090Z,5
2022-11-17T06:27:52.201Z,5
2022-11-17T06:28:59.287Z,5
2022-11-17T06:30:06.367Z,5
2022-11-17T06:31:12.925Z,5
2022-11-17T06:32:20.141Z,5
2022-11-17T06:34:34.350Z,4.9
2022-11-17T06:35:41.343Z,4.9
2022-11-17T06:36:48.511Z,4.9
2022-11-17T06:37:55.091Z,4.9
2022-11-17T06:39:02.161Z,4.9
2022-11-17T06:40:09.369Z,4.9
2022-11-17T06:41:16.358Z,4.9
2022-11-17T06:42:22.987Z,4.9
2022-11-17T06:43:30.070Z,4.9
2022-11-17T06:44:37.235Z,4.9
2022-11-17T06:45:43.773Z,4.9
2022-11-17T06:46:50.878Z,4.8
2022-11-17T06:47:58.039Z,4.9
2022-11-17T06:49:05.101Z,4.9
2022-11-17T06:50:12.201Z,4.8
2022-11-17T06:51:19.347Z,4.9
2022-11-17T06:52:26.041Z,4.8
2022-11-17T06:53:33.449Z,4.8
2022-11-17T06:54:40.126Z,4.8
2022-11-17T06:55:47.259Z,4.8
2022-11-17T06:56:54.396Z,4.9
2022-11-17T06:58:00.952Z,4.8
2022-11-17T06:59:08.058Z,4.8
2022-11-17T07:00:15.167Z,4.8
2022-11-17T07:01:22.237Z,4.9
2022-11-17T07:02:29.470Z,4.9
2022-11-17T07:03:36.306Z,4.9
2022-11-17T07:04:43.020Z,4.9
2022-11-17T07:05:50.156Z,4.9
2022-11-17T07:06:57.324Z,4.9
2022-11-17T07:08:04.419Z,5
2022-11-17T07:09:10.984Z,4.9
2022-11-17T07:10:18.068Z,4.9
2022-11-17T07:11:25.211Z,4.9
2022-11-17T07:12:32.287Z,4.9
2022-11-17T07:13:39.429Z,4.9
2022-11-17T07:15:53.029Z,5
2022-11-17T07:17:00.156Z,5
2022-11-17T07:18:07.311Z,5.1
2022-11-17T07:19:14.398Z,5.1
2022-11-17T07:20:20.928Z,5.1
2022-11-17T07:22:35.367Z,5.1
2022-11-17T07:23:42.240Z,5.1
2022-11-17T07:24:49.419Z,5.1
2022-11-17T07:25:55.992Z,5.1
2022-11-17T07:27:03.068Z,5.1
2022-11-17T07:28:10.135Z,5.1
2022-11-17T07:29:17.305Z,5.1
2022-11-17T07:31:30.998Z,5.2
2022-11-17T07:32:38.126Z,5.2
2022-11-17T07:33:45.187Z,5.3
2022-11-17T07:34:52.277Z,5.3
2022-11-17T07:35:59.388Z,5.3
2022-11-17T07:37:05.981Z,5.3
2022-11-17T07:38:13.167Z,5.3
2022-11-17T07:39:21.952Z,5.3
2022-11-17T07:40:27.874Z,5.3
2022-11-17T07:41:34.438Z,5.3
2022-11-17T07:42:41.008Z,5.3
2022-11-17T07:43:48.131Z,5.4
2022-11-17T07:44:55.232Z,5.4
2022-11-17T07:46:02.304Z,5.4
2022-11-17T07:47:09.516Z,5.4
2022-11-17T07:48:15.983Z,5.4
2022-11-17T07:49:23.117Z,5.4
2022-11-17T07:50:30.249Z,5.4
2022-11-17T07:51:37.428Z,5.4
2022-11-17T07:52:44.456Z,5.4
2022-11-17T07:53:51.017Z,5.4
2022-11-17T07:54:58.169Z,5.4
2022-11-17T07:57:12.390Z,5.4
2022-11-17T07:58:19.406Z,5.4
2022-11-17T07:59:26.040Z,5.4
2022-11-17T08:00:33.152Z,5.4
2022-11-17T08:01:40.422Z,5.4
2022-11-17T08:02:49.474Z,5.4
2022-11-17T08:03:54.511Z,5.4
2022-11-17T08:05:01.029Z,5.4
2022-11-17T08:06:08.155Z,5.4
2022-11-17T08:07:15.925Z,5.4
2022-11-17T08:08:22.321Z,5.4
2022-11-17T08:09:29.443Z,5.4
2022-11-17T08:10:36.070Z,5.4
2022-11-17T08:11:43.198Z,5.4
2022-11-17T08:12:50.310Z,5.5
2022-11-17T08:13:57.361Z,5.5
2022-11-17T08:15:04.498Z,5.6
2022-11-17T08:16:11.053Z,5.6
2022-11-17T08:17:18.162Z,5.6
2022-11-17T08:18:25.300Z,5.6
2022-11-17T08:19:32.300Z,5.6
2022-11-17T08:20:38.961Z,5.6
2022-11-17T08:21:46.026Z,5.7
2022-11-17T08:22:53.122Z,5.6
2022-11-17T08:24:00.328Z,5.6
2022-11-17T08:26:14.470Z,5.7
2022-11-17T08:27:21.130Z,5.8
2022-11-17T08:28:28.212Z,5.8
2022-11-17T08:29:35.300Z,5.9
2022-11-17T08:30:42.375Z,6
2022-11-17T08:31:49.039Z,6
2022-11-17T08:32:56.148Z,6
2022-11-17T08:34:03.185Z,6
2022-11-17T08:35:10.386Z,6
2022-11-17T08:36:17.423Z,6.1
2022-11-17T08:38:31.209Z,6.1
2022-11-17T08:39:38.212Z,6.1
2022-11-17T08:40:45.333Z,6.1
2022-11-17T08:41:52.391Z,6.1
2022-11-17T08:43:01.189Z,6.1
2022-11-17T08:44:06.637Z,6.1
2022-11-17T08:45:13.178Z,6.1
2022-11-17T08:46:20.342Z,6.1
2022-11-17T08:47:27.415Z,6.1
2022-11-17T08:48:34.341Z,6.1
2022-11-17T08:49:41.033Z,6.1
2022-11-17T08:50:48.179Z,6.1
2022-11-17T08:51:55.268Z,6.1
2022-11-17T08:53:02.357Z,6.1
2022-11-17T08:54:09.033Z,6.1
2022-11-17T08:55:16.148Z,6.2
2022-11-17T08:56:23.177Z,6.2
2022-11-17T08:57:30.462Z,6.2
2022-11-17T08:59:43.971Z,6.3
2022-11-17T09:00:51.137Z,6.3
2022-11-17T09:01:58.246Z,6.3
2022-11-17T09:03:05.403Z,6.4
2022-11-17T09:04:12.367Z,6.4
2022-11-17T09:05:19.005Z,6.5
2022-11-17T09:06:26.069Z,6.5
2022-11-17T09:07:34.925Z,6.5
2022-11-17T09:08:46.648Z,6.5
2022-11-17T09:09:47.434Z,6.5
2022-11-17T09:10:53.943Z,6.5
2022-11-17T09:12:01.160Z,6.5
2022-11-17T09:13:08.234Z,6.5
2022-11-17T09:14:15.354Z,6.5
2022-11-17T09:15:22.394Z,6.5
2022-11-17T09:16:29.037Z,6.5
2022-11-17T09:17:36.083Z,6.5
2022-11-17T09:19:50.293Z,6.5
2022-11-17T09:20:57.430Z,6.5
2022-11-17T09:22:04.091Z,6.5
2022-11-17T09:23:11.169Z,6.5
2022-11-17T09:24:18.210Z,6.5
2022-11-17T09:25:25.357Z,6.5
2022-11-17T09:26:32.425Z,6.5
2022-11-17T09:27:38.991Z,6.5
2022-11-17T09:29:53.207Z,6.5
2022-11-17T09:31:01.513Z,6.5
2022-11-17T09:32:07.465Z,6.5
2022-11-17T09:33:14.043Z,6.5
2022-11-17T09:34:21.175Z,6.6
2022-11-17T09:35:28.759Z,6.5
2022-11-17T09:36:35.374Z,6.5
2022-11-17T09:37:41.904Z,6.5
2022-11-17T09:38:49.041Z,6.5
2022-11-17T09:39:56.162Z,6.5
2022-11-17T09:41:03.224Z,6.5
2022-11-17T09:42:10.383Z,6.5
2022-11-17T09:43:16.941Z,6.5
2022-11-17T09:44:24.052Z,6.5
2022-11-17T09:45:31.180Z,6.6
2022-11-17T09:46:38.253Z,6.5
2022-11-17T09:47:45.860Z,6.5
2022-11-17T09:48:51.974Z,6.5
2022-11-17T09:49:59.486Z,6.6
2022-11-17T09:51:06.131Z,6.6
2022-11-17T09:52:13.270Z,6.6
2022-11-17T09:53:20.332Z,6.7
2022-11-17T09:54:26.945Z,6.7
2022-11-17T09:55:34.543Z,6.7
2022-11-17T09:56:41.205Z,6.7
2022-11-17T09:57:48.291Z,6.8
2022-11-17T09:58:55.351Z,6.8
2022-11-17T10:01:09.092Z,6.9
2022-11-17T10:02:16.245Z,6.8
2022-11-17T10:03:23.274Z,6.8
2022-11-17T10:04:30.363Z,6.9
2022-11-17T10:05:37.001Z,6.8
2022-11-17T10:06:44.089Z,6.9
2022-11-17T10:07:51.200Z,7
2022-11-17T10:08:58.390Z,7
2022-11-17T10:10:05.403Z,7
2022-11-17T10:11:11.973Z,7
2022-11-17T10:12:19.113Z,7
2022-11-17T10:13:26.206Z,7.1
2022-11-17T10:14:33.409Z,7
2022-11-17T10:15:40.379Z,7
2022-11-17T10:16:47.013Z,7.1
2022-11-17T10:17:55.178Z,7.1
2022-11-17T10:19:01.144Z,7.1
2022-11-17T10:20:08.273Z,7.2
2022-11-17T10:21:15.425Z,7.2
2022-11-17T10:22:21.976Z,7.2
2022-11-17T10:23:29.132Z,7.2
2022-11-17T10:24:36.575Z,7.2
2022-11-17T10:25:43.400Z,7.3
2022-11-17T10:27:57.016Z,7.4
2022-11-17T10:29:08.214Z,7.4
2022-11-17T10:30:11.169Z,7.4
2022-11-17T10:31:18.353Z,7.4
2022-11-17T10:33:32.041Z,7.4
2022-11-17T10:34:41.397Z,7.4
2022-11-17T10:35:46.226Z,7.4
2022-11-17T10:36:53.381Z,7.5
2022-11-17T10:38:00.444Z,7.4
2022-11-17T10:39:08.615Z,7.5
2022-11-17T10:40:14.086Z,7.5
2022-11-17T10:42:28.377Z,7.5
2022-11-17T10:43:35.787Z,7.6
2022-11-17T10:44:42.041Z,7.6
2022-11-17T10:45:49.125Z,7.5
2022-11-17T10:47:01.714Z,7.5
2022-11-17T10:48:03.334Z,7.6
2022-11-17T10:49:10.390Z,7.6
2022-11-17T10:50:17.075Z,7.6
2022-11-17T10:51:24.632Z,7.6
2022-11-17T10:53:45.062Z,7.6
2022-11-17T10:54:44.906Z,7.6
2022-11-17T10:55:52.020Z,7.6
2022-11-17T10:56:59.134Z,7.6
2022-11-17T10:58:06.281Z,7.6
2022-11-17T10:59:13.345Z,7.6
2022-11-17T11:00:19.954Z,7.6
2022-11-17T11:01:27.146Z,7.7
2022-11-17T11:02:34.195Z,7.7
2022-11-17T11:03:41.772Z,7.7
2022-11-17T11:04:48.404Z,7.7
2022-11-17T11:05:54.958Z,7.8
2022-11-17T11:07:02.150Z,7.8
2022-11-17T11:08:09.112Z,7.8
2022-11-17T11:09:16.242Z,7.8
2022-11-17T11:10:23.344Z,7.8
2022-11-17T11:11:34.867Z,7.8
2022-11-17T11:12:37.081Z,7.8
2022-11-17T11:13:44.277Z,7.8
2022-11-17T11:14:51.264Z,7.9
2022-11-17T11:15:58.398Z,7.8
2022-11-17T11:17:04.963Z,7.9
2022-11-17T11:18:12.080Z,7.9
2022-11-17T11:19:19.147Z,7.9
2022-11-17T11:20:26.322Z,7.9
2022-11-17T11:21:33.343Z,7.9
2022-11-17T11:23:47.086Z,7.9
2022-11-17T11:24:54.191Z,7.9
2022-11-17T11:26:01.255Z,7.9
2022-11-17T11:27:08.456Z,7.9
2022-11-17T11:28:14.983Z,7.9
2022-11-17T11:29:22.101Z,8
2022-11-17T11:30:29.204Z,8
2022-11-17T11:31:36.318Z,8
2022-11-17T11:32:43.416Z,8
2022-11-17T11:33:49.961Z,8
2022-11-17T11:34:57.114Z,8
2022-11-17T11:37:11.335Z,8
2022-11-17T11:38:18.427Z,8.1
2022-11-17T11:39:25.133Z,8.1
2022-11-17T11:40:33.627Z,8.1
2022-11-17T11:41:39.206Z,8.1
2022-11-17T11:42:49.459Z,8.1
2022-11-17T11:43:53.402Z,8.1
2022-11-17T11:45:00.022Z,8.1
2022-11-17T11:46:07.083Z,8.2
2022-11-17T11:47:14.288Z,8.2
2022-11-17T11:48:21.314Z,8.2
2022-11-17T11:49:28.447Z,8.2
2022-11-17T11:50:40.417Z,8.2
2022-11-17T11:51:42.096Z,8.2
2022-11-17T11:52:49.706Z,8.2
2022-11-17T11:53:56.355Z,8.3
2022-11-17T11:56:10.003Z,8.3
2022-11-17T11:57:17.164Z,8.3
2022-11-17T11:58:24.229Z,8.3
2022-11-17T11:59:31.532Z,8.3
2022-11-17T12:00:38.407Z,8.3
2022-11-17T12:01:45.089Z,8.3
2022-11-17T12:02:52.193Z,8.3
2022-11-17T12:05:06.293Z,8.3
2022-11-17T12:06:13.432Z,8.2
2022-11-17T12:07:20.179Z,8.3
2022-11-17T12:08:27.202Z,8.3
2022-11-17T12:09:34.276Z,8.3
2022-11-17T12:10:41.437Z,8.3
2022-11-17T12:11:48.468Z,8.3
2022-11-17T12:12:55.047Z,8.3
2022-11-17T12:14:02.122Z,8.3
2022-11-17T12:15:09.269Z,8.3
2022-11-17T12:16:16.340Z,8.3
2022-11-17T12:17:22.981Z,8.3
2022-11-17T12:18:30.056Z,8.3
2022-11-17T12:19:37.170Z,8.3
2022-11-17T12:20:44.232Z,8.3
2022-11-17T12:21:51.904Z,8.3
2022-11-17T12:22:57.990Z,8.3
2022-11-17T12:24:05.038Z,8.3
2022-11-17T12:25:12.103Z,8.3
2022-11-17T12:26:19.291Z,8.3
2022-11-17T12:27:26.408Z,8.3
2022-11-17T12:28:32.898Z,8.3
2022-11-17T12:29:40.125Z,8.3
2022-11-17T12:30:47.177Z,8.3
2022-11-17T12:31:54.815Z,8.3
2022-11-17T12:33:01.412Z,8.3
2022-11-17T12:34:07.985Z,8.3
2022-11-17T12:35:15.068Z,8.3
2022-11-17T12:36:25.483Z,8.3
2022-11-17T12:37:29.295Z,8.3
2022-11-17T12:38:36.494Z,8.3
2022-11-17T12:40:50.080Z,8.3
2022-11-17T12:41:57.260Z,8.3
2022-11-17T12:43:04.369Z,8.3
2022-11-17T12:44:11.710Z,8.3
2022-11-17T12:46:25.102Z,8.3
2022-11-17T12:47:32.244Z,8.3
2022-11-17T12:48:39.566Z,8.3
2022-11-17T12:49:46.446Z,8.3
2022-11-17T12:50:53.090Z,8.3
2022-11-17T12:52:00.086Z,8.3
2022-11-17T12:53:07.205Z,8.3
2022-11-17T12:54:14.778Z,8.3
2022-11-17T12:55:21.401Z,8.3
2022-11-17T12:56:27.981Z,8.3
2022-11-17T12:57:35.198Z,8.3
2022-11-17T12:58:42.680Z,8.3
2022-11-17T12:59:49.339Z,8.3
2022-11-17T13:00:56.464Z,8.3
2022-11-17T13:02:02.965Z,8.3
2022-11-17T13:03:11.095Z,8.3
2022-11-17T13:04:17.214Z,8.3
2022-11-17T13:05:24.292Z,8.3
2022-11-17T13:06:36.415Z,8.3
2022-11-17T13:07:38.264Z,8.3
2022-11-17T13:08:45.109Z,8.3
2022-11-17T13:09:52.185Z,8.3
2022-11-17T13:10:59.372Z,8.3
2022-11-17T13:12:06.405Z,8.3
2022-11-17T13:13:12.990Z,8.3
2022-11-17T13:14:20.612Z,8.3
2022-11-17T13:15:27.215Z,8.3
2022-11-17T13:16:34.372Z,8.3
2022-11-17T13:17:41.434Z,8.3
2022-11-17T13:18:47.978Z,8.3
2022-11-17T13:19:55.170Z,8.3
2022-11-17T13:21:02.181Z,8.3
2022-11-17T13:22:09.370Z,8.3
2022-11-17T13:24:22.989Z,8.3
2022-11-17T13:25:30.189Z,8.3
2022-11-17T13:27:47.888Z,8.3
2022-11-17T13:28:51.015Z,8.3
2022-11-17T13:29:58.074Z,8.2
2022-11-17T13:31:05.197Z,8.2
2022-11-17T13:32:12.236Z,8.3
2022-11-17T13:33:19.385Z,8.3
2022-11-17T13:34:25.962Z,8.3
2022-11-17T13:35:32.983Z,8.3
2022-11-17T13:36:40.212Z,8.3
2022-11-17T13:37:47.382Z,8.3
2022-11-17T13:38:54.342Z,8.3
2022-11-17T13:40:00.935Z,8.3
2022-11-17T13:41:08.003Z,8.3
2022-11-17T13:42:15.140Z,8.3
2022-11-17T13:44:29.927Z,8.3
2022-11-17T13:45:36.046Z,8.2
2022-11-17T13:46:43.018Z,8.2
2022-11-17T13:47:50.255Z,8.2
2022-11-17T13:48:57.352Z,8.2
2022-11-17T13:50:04.384Z,8.2
2022-11-17T13:51:10.923Z,8.2
2022-11-17T13:52:18.132Z,8.2
2022-11-17T13:53:25.166Z,8.2
2022-11-17T13:54:32.252Z,8.2
2022-11-17T13:55:39.398Z,8.2
2022-11-17T13:56:45.964Z,8.2
2022-11-17T13:57:53.095Z,8.2
2022-11-17T13:59:00.216Z,8.2
2022-11-17T14:00:07.864Z,8.2
2022-11-17T14:01:14.491Z,8.2
2022-11-17T14:02:21.484Z,8.2
2022-11-17T14:03:28.121Z,8.1
2022-11-17T14:04:35.163Z,8.1
2022-11-17T14:05:42.289Z,8.1
2022-11-17T14:06:49.400Z,8.1
2022-11-17T14:09:03.102Z,8.1
2022-11-17T14:10:12.574Z,8.1
2022-11-17T14:11:17.288Z,8.1
2022-11-17T14:12:24.454Z,8.1
2022-11-17T14:13:31.029Z,8.1
2022-11-17T14:14:38.110Z,8.1
2022-11-17T14:15:49.147Z,8.1
2022-11-17T14:16:52.285Z,8.1
2022-11-17T14:17:59.682Z,8.1
2022-11-17T14:19:05.960Z,8.1
2022-11-17T14:20:13.089Z,8.1
2022-11-17T14:21:20.226Z,8.1
2022-11-17T14:22:31.079Z,8.1
2022-11-17T14:23:33.905Z,8.1
2022-11-17T14:24:41.130Z,8.1
2022-11-17T14:25:48.622Z,8.1
2022-11-17T14:26:55.217Z,8.1
2022-11-17T14:28:02.353Z,8
2022-11-17T14:29:08.905Z,8.1
2022-11-17T14:30:16.057Z,8.1
2022-11-17T14:31:23.124Z,8.1
2022-11-17T14:32:30.307Z,8
2022-11-17T14:33:37.348Z,8
2022-11-17T14:34:43.889Z,8
2022-11-17T14:35:50.973Z,8
2022-11-17T14:36:58.149Z,8
2022-11-17T14:38:05.348Z,8
2022-11-17T14:39:12.951Z,8
2022-11-17T14:40:19.459Z,8
2022-11-17T14:41:26.010Z,8
2022-11-17T14:42:36.083Z,8
2022-11-17T14:43:40.219Z,8
2022-11-17T14:44:47.350Z,8
2022-11-17T14:45:53.942Z,8
2022-11-17T14:48:08.261Z,8
2022-11-17T14:49:15.530Z,8
2022-11-17T14:50:22.362Z,8
2022-11-17T14:52:36.030Z,7.9
2022-11-17T14:53:43.160Z,7.9
2022-11-17T14:54:50.301Z,7.9
2022-11-17T14:55:57.366Z,7.9
2022-11-17T14:57:03.966Z,7.9
2022-11-17T14:58:11.049Z,7.9
2022-11-17T14:59:18.393Z,7.9
2022-11-17T15:00:25.312Z,7.9
2022-11-17T15:01:32.408Z,7.9
2022-11-17T15:02:38.977Z,7.9
2022-11-17T15:03:46.118Z,7.9
2022-11-17T15:04:53.861Z,7.9
2022-11-17T15:06:00.784Z,7.9
2022-11-17T15:07:08.080Z,7.9
2022-11-17T15:08:14.065Z,7.9
2022-11-17T15:09:21.065Z,7.9
2022-11-17T15:10:28.323Z,7.9
2022-11-17T15:11:39.428Z,7.9
2022-11-17T15:12:42.400Z,7.9
2022-11-17T15:13:48.951Z,7.9
2022-11-17T15:14:56.083Z,7.9
2022-11-17T15:16:03.278Z,7.9
2022-11-17T15:17:14.333Z,7.9
2022-11-17T15:18:17.427Z,7.9
2022-11-17T15:19:24.009Z,7.9
2022-11-17T15:20:31.215Z,7.9
2022-11-17T15:21:38.217Z,7.8
2022-11-17T15:22:45.317Z,7.8
2022-11-17T15:23:52.442Z,7.8
2022-11-17T15:24:58.964Z,7.8
2022-11-17T15:26:06.177Z,7.8
2022-11-17T15:27:13.214Z,7.8
2022-11-17T15:28:23.035Z,7.7
2022-11-17T15:29:27.486Z,7.8
2022-11-17T15:30:34.010Z,7.7
2022-11-17T15:31:41.151Z,7.7
2022-11-17T15:32:49.797Z,7.7
2022-11-17T15:33:55.379Z,7.7
2022-11-17T15:35:02.444Z,7.7
2022-11-17T15:36:09.006Z,7.7
2022-11-17T15:37:16.156Z,7.7
2022-11-17T15:38:23.164Z,7.7
2022-11-17T15:39:30.358Z,7.7
2022-11-17T15:40:37.486Z,7.7
2022-11-17T15:41:43.985Z,7.7
2022-11-17T15:42:51.063Z,7.7
2022-11-17T15:43:58.299Z,7.7
2022-11-17T15:45:05.298Z,7.7
2022-11-17T15:46:12.414Z,7.7
2022-11-17T15:47:19.034Z,7.7
2022-11-17T15:48:26.711Z,7.7
2022-11-17T15:49:33.283Z,7.6
2022-11-17T15:50:40.340Z,7.6
2022-11-17T15:51:47.812Z,7.6
2022-11-17T15:53:03.973Z,7.6
2022-11-17T15:54:01.098Z,7.6
2022-11-17T15:55:08.229Z,7.6
2022-11-17T15:56:15.534Z,7.6
2022-11-17T15:57:21.997Z,7.6
2022-11-17T15:58:29.082Z,7.6
2022-11-17T15:59:36.106Z,7.6
2022-11-17T16:00:43.326Z,7.6
2022-11-17T16:01:50.311Z,7.5
2022-11-17T16:02:58.831Z,7.5
2022-11-17T16:04:04.143Z,7.5
2022-11-17T16:05:11.164Z,7.5
2022-11-17T16:06:18.326Z,7.5
2022-11-17T16:07:25.585Z,7.5
2022-11-17T16:08:31.990Z,7.5
2022-11-17T16:09:39.679Z,7.5
2022-11-17T16:10:46.225Z,7.5
2022-11-17T16:11:53.409Z,7.5
2022-11-17T16:13:00.540Z,7.5
2022-11-17T16:14:07.048Z,7.5
2022-11-17T16:15:14.077Z,7.5
2022-11-17T16:16:21.255Z,7.5
2022-11-17T16:17:28.387Z,7.5
2022-11-17T16:18:35.499Z,7.5